Time;durP1;ratioP1;P1;durP2;ratioP2;P2;SDS_P1;SDS_P2;PMS_P1;PMS_P2;Temp;Humidity;BMP_temperature;BMP_pressure;BME280_temperature;BME280_humidity;BME280_pressure;Samples;Min_cycle;Max_cycle;Signal;HPM_P1;HPM_P2
2022/08/29 00:01:31;;;;;;;4.90;1.70;;;;;;;;;;10412768;28;20531;-48
2022/08/29 00:06:32;;;;;;;22.67;2.08;;;;;;;;;;10411334;28;20045;-52
2022/08/29 00:11:33;;;;;;;9.05;1.90;;;;;;;;;;10409245;28;20030;-48
2022/08/29 00:16:34;;;;;;;3.72;1.70;;;;;;;;;;10411411;28;20029;-50
2022/08/29 00:21:34;;;;;;;3.55;1.75;;;;;;;;;;10393647;28;20549;-53
2022/08/29 00:26:35;;;;;;;11.48;2.05;;;;;;;;;;10392947;28;20056;-52
2022/08/29 00:31:36;;;;;;;2.88;1.55;;;;;;;;;;10391207;28;20033;-55
2022/08/29 00:36:36;;;;;;;3.92;1.65;;;;;;;;;;10411067;28;20025;-58
2022/08/29 00:41:37;;;;;;;3.28;1.67;;;;;;;;;;10404537;28;20378;-59
2022/08/29 00:46:55;;;;;;;2.30;1.65;;;;;;;;;;10407907;28;20032;-58
2022/08/29 00:52:03;;;;;;;3.80;1.50;;;;;;;;;;10377873;28;20036;-55
2022/08/29 00:57:04;;;;;;;4.88;1.30;;;;;;;;;;10379862;28;20031;-59
2022/08/29 01:02:07;;;;;;;1.85;1.30;;;;;;;;;;10410576;28;20030;-56
2022/08/29 01:07:09;;;;;;;2.15;1.52;;;;;;;;;;10409459;28;20092;-59
2022/08/29 01:12:16;;;;;;;5.40;1.58;;;;;;;;;;10392386;28;20496;-56
2022/08/29 01:17:32;;;;;;;2.22;1.40;;;;;;;;;;10409545;28;20059;-49
2022/08/29 01:23:08;;;;;;;2.03;1.30;;;;;;;;;;10393209;28;20059;-48
2022/08/29 01:28:12;;;;;;;2.53;1.40;;;;;;;;;;10379976;28;20026;-48
2022/08/29 01:33:13;;;;;;;1.70;1.33;;;;;;;;;;10379422;28;20041;-48
2022/08/29 01:38:26;;;;;;;4.43;1.42;;;;;;;;;;10408605;28;20037;-48
2022/08/29 01:43:28;;;;;;;2.38;1.35;;;;;;;;;;10408333;28;20025;-48
2022/08/29 01:48:29;;;;;;;5.45;1.42;;;;;;;;;;10408233;28;20025;-48
2022/08/29 01:53:29;;;;;;;3.88;1.45;;;;;;;;;;10407718;28;20033;-47
2022/08/29 01:58:30;;;;;;;1.90;1.20;;;;;;;;;;10407844;28;20068;-47
2022/08/29 02:03:31;;;;;;;2.00;1.30;;;;;;;;;;10407202;28;20029;-48
2022/08/29 02:08:31;;;;;;;1.05;0.98;;;;;;;;;;10407714;28;20317;-49
2022/08/29 02:13:32;;;;;;;1.58;1.23;;;;;;;;;;10408018;28;20280;-47
2022/08/29 02:18:33;;;;;;;1.80;1.42;;;;;;;;;;10407377;28;20037;-47
2022/08/29 02:23:36;;;;;;;1.42;1.33;;;;;;;;;;10406978;28;20032;-48
2022/08/29 02:28:37;;;;;;;1.77;1.55;;;;;;;;;;10402473;28;20101;-47
2022/08/29 02:33:39;;;;;;;2.03;1.33;;;;;;;;;;10401670;28;20044;-48
2022/08/29 02:38:40;;;;;;;3.60;1.38;;;;;;;;;;10407459;28;20033;-48
2022/08/29 02:43:41;;;;;;;9.38;1.40;;;;;;;;;;10407654;28;20369;-57
2022/08/29 02:48:45;;;;;;;2.50;1.50;;;;;;;;;;10407259;28;20034;-59
2022/08/29 02:53:46;;;;;;;2.03;1.30;;;;;;;;;;10407205;28;20116;-58
2022/08/29 02:58:49;;;;;;;1.88;1.20;;;;;;;;;;10406456;28;20038;-58
2022/08/29 03:03:50;;;;;;;3.28;1.30;;;;;;;;;;10406928;28;20041;-55
2022/08/29 03:08:50;;;;;;;5.05;1.63;;;;;;;;;;10407543;28;20481;-57
2022/08/29 03:13:51;;;;;;;1.30;1.20;;;;;;;;;;10407406;28;20045;-57
2022/08/29 03:18:52;;;;;;;1.30;1.20;;;;;;;;;;10414376;28;20052;-58
2022/08/29 03:23:55;;;;;;;1.58;1.10;;;;;;;;;;10414187;28;20037;-58
2022/08/29 03:28:55;;;;;;;4.20;1.58;;;;;;;;;;10407407;28;20083;-58
2022/08/29 03:33:56;;;;;;;1.90;1.20;;;;;;;;;;10413891;28;20022;-59
2022/08/29 03:38:56;;;;;;;1.50;1.10;;;;;;;;;;10413359;28;20030;-56
2022/08/29 03:43:58;;;;;;;1.92;1.30;;;;;;;;;;10413176;28;20481;-59
2022/08/29 03:48:59;;;;;;;1.35;1.20;;;;;;;;;;10413499;28;20022;-59
2022/08/29 03:54:00;;;;;;;1.50;1.13;;;;;;;;;;10411936;28;20485;-60
2022/08/29 03:59:00;;;;;;;1.00;1.00;;;;;;;;;;10412633;28;20029;-56
2022/08/29 04:04:01;;;;;;;1.20;1.10;;;;;;;;;;10412456;28;20033;-59
2022/08/29 04:09:02;;;;;;;2.03;1.30;;;;;;;;;;10412232;28;20497;-59
2022/08/29 04:14:03;;;;;;;1.48;1.10;;;;;;;;;;10411745;28;20440;-59
2022/08/29 04:19:03;;;;;;;1.30;1.20;;;;;;;;;;10411820;28;20033;-59
2022/08/29 04:24:04;;;;;;;1.48;1.25;;;;;;;;;;10399780;28;20628;-59
2022/08/29 04:29:07;;;;;;;2.08;1.38;;;;;;;;;;10391500;28;20125;-60
2022/08/29 04:34:11;;;;;;;1.83;1.23;;;;;;;;;;10410815;28;20033;-59
2022/08/29 04:39:13;;;;;;;2.80;1.50;;;;;;;;;;10410327;28;20037;-60
2022/08/29 04:44:14;;;;;;;1.98;1.30;;;;;;;;;;10410569;28;20022;-51
2022/08/29 04:49:14;;;;;;;2.30;1.50;;;;;;;;;;10399435;28;20388;-49
2022/08/29 04:54:15;;;;;;;2.25;1.20;;;;;;;;;;10410337;28;20018;-47
2022/08/29 04:59:15;;;;;;;1.65;1.20;;;;;;;;;;10410001;28;20029;-47
2022/08/29 05:04:16;;;;;;;3.55;1.30;;;;;;;;;;10404899;28;20990;-47
2022/08/29 05:09:17;;;;;;;2.03;1.40;;;;;;;;;;10408073;28;20087;-49
2022/08/29 05:14:17;;;;;;;6.75;1.50;;;;;;;;;;10408655;28;20338;-48
2022/08/29 05:19:18;;;;;;;1.58;1.10;;;;;;;;;;10409795;28;20036;-48
2022/08/29 05:24:19;;;;;;;2.05;1.40;;;;;;;;;;10407074;28;20092;-51
2022/08/29 05:29:19;;;;;;;2.63;1.50;;;;;;;;;;10405543;28;20405;-51
2022/08/29 05:34:20;;;;;;;8.27;1.88;;;;;;;;;;10407057;28;20053;-50
2022/08/29 05:39:21;;;;;;;3.53;2.20;;;;;;;;;;10405783;28;20033;-47
2022/08/29 05:44:21;;;;;;;5.90;1.60;;;;;;;;;;10407664;28;20079;-47
2022/08/29 05:49:22;;;;;;;12.02;2.83;;;;;;;;;;10407071;28;20040;-55
2022/08/29 05:54:24;;;;;;;6.18;3.50;;;;;;;;;;10405884;28;20026;-53
2022/08/29 05:59:25;;;;;;;10.43;3.72;;;;;;;;;;10401930;28;20064;-48
2022/08/29 06:04:25;;;;;;;6.85;3.55;;;;;;;;;;10401612;28;20069;-52
2022/08/29 06:09:27;;;;;;;7.63;3.90;;;;;;;;;;10404079;28;20029;-52
2022/08/29 06:14:28;;;;;;;6.10;3.53;;;;;;;;;;10407474;28;20025;-50
2022/08/29 06:19:33;;;;;;;8.68;4.13;;;;;;;;;;10407979;28;20021;-52
2022/08/29 06:24:34;;;;;;;9.10;4.03;;;;;;;;;;10405636;28;20030;-50
2022/08/29 06:29:35;;;;;;;5.93;3.78;;;;;;;;;;10407663;28;20025;-50
2022/08/29 06:34:35;;;;;;;5.28;3.33;;;;;;;;;;10407553;28;20402;-50
2022/08/29 06:39:36;;;;;;;4.85;3.60;;;;;;;;;;10407603;28;20036;-49
2022/08/29 06:44:36;;;;;;;4.57;3.55;;;;;;;;;;10407447;28;20021;-52
2022/08/29 06:49:37;;;;;;;7.32;3.65;;;;;;;;;;10409768;28;20465;-49
2022/08/29 06:54:38;;;;;;;7.45;3.28;;;;;;;;;;10415659;28;20032;-48
2022/08/29 06:59:38;;;;;;;4.90;3.55;;;;;;;;;;10415152;28;20041;-50
2022/08/29 07:04:39;;;;;;;7.78;3.78;;;;;;;;;;10415051;28;20096;-48
2022/08/29 07:09:39;;;;;;;5.32;3.03;;;;;;;;;;10414904;28;20173;-48
2022/08/29 07:14:40;;;;;;;4.00;3.13;;;;;;;;;;10414451;28;20013;-48
2022/08/29 07:19:41;;;;;;;4.10;3.15;;;;;;;;;;10414236;28;20504;-50
2022/08/29 07:24:41;;;;;;;7.80;3.42;;;;;;;;;;10414402;28;20489;-50
2022/08/29 07:29:42;;;;;;;4.28;2.90;;;;;;;;;;10403282;28;20029;-52
2022/08/29 07:34:42;;;;;;;6.10;3.42;;;;;;;;;;10414103;28;20026;-50
2022/08/29 07:39:43;;;;;;;3.38;3.08;;;;;;;;;;10413609;28;20069;-54
2022/08/29 07:44:43;;;;;;;4.57;3.13;;;;;;;;;;10413134;28;20476;-53
2022/08/29 07:49:44;;;;;;;7.00;3.08;;;;;;;;;;10413130;28;20416;-52
2022/08/29 07:54:45;;;;;;;6.03;3.47;;;;;;;;;;10411545;28;20393;-55
2022/08/29 07:59:45;;;;;;;3.30;2.95;;;;;;;;;;10399790;28;20441;-56
2022/08/29 08:04:46;;;;;;;4.05;3.03;;;;;;;;;;10403909;28;20393;-50
2022/08/29 08:09:47;;;;;;;3.35;3.05;;;;;;;;;;10412135;28;20450;-55
2022/08/29 08:14:47;;;;;;;4.78;3.00;;;;;;;;;;10411617;28;20025;-54
2022/08/29 08:19:48;;;;;;;4.22;2.97;;;;;;;;;;10411493;28;20017;-52
2022/08/29 08:24:49;;;;;;;4.38;3.10;;;;;;;;;;10412061;28;20120;-55
2022/08/29 08:29:49;;;;;;;4.53;2.83;;;;;;;;;;10399727;28;20026;-48
2022/08/29 08:34:50;;;;;;;5.57;2.75;;;;;;;;;;10411195;28;20029;-50
2022/08/29 08:39:55;;;;;;;3.53;2.78;;;;;;;;;;10411165;28;20095;-53
2022/08/29 08:45:13;;;;;;;3.88;2.80;;;;;;;;;;10410911;28;20033;-51
2022/08/29 08:50:43;;;;;;;6.43;3.33;;;;;;;;;;10410591;28;20026;-52
2022/08/29 08:55:55;;;;;;;4.10;3.10;;;;;;;;;;10395609;28;20029;-53
2022/08/29 09:01:21;;;;;;;5.40;3.20;;;;;;;;;;10393392;28;20060;-50
2022/08/29 09:06:41;;;;;;;3.40;2.60;;;;;;;;;;10409955;28;20057;-52
2022/08/29 09:12:10;;;;;;;4.65;2.78;;;;;;;;;;10410010;28;20068;-50
2022/08/29 09:17:42;;;;;;;5.45;2.92;;;;;;;;;;10368796;28;20064;-50
2022/08/29 09:22:59;;;;;;;6.53;2.92;;;;;;;;;;10400088;28;20025;-49
2022/08/29 09:28:00;;;;;;;3.55;2.78;;;;;;;;;;10409019;28;20021;-51
2022/08/29 09:33:14;;;;;;;3.80;2.90;;;;;;;;;;10382464;28;20520;-50
2022/08/29 09:38:17;;;;;;;4.47;2.92;;;;;;;;;;10392056;28;20053;-50
2022/08/29 09:43:38;;;;;;;3.75;3.03;;;;;;;;;;10408663;28;20109;-51
2022/08/29 09:49:11;;;;;;;4.57;3.15;;;;;;;;;;10392341;28;20112;-47
2022/08/29 09:54:30;;;;;;;4.35;2.90;;;;;;;;;;10408423;28;20120;-48
2022/08/29 09:59:38;;;;;;;4.85;3.28;;;;;;;;;;10408361;28;20488;-53
2022/08/29 10:04:42;;;;;;;4.25;3.40;;;;;;;;;;10408255;28;20045;-51
2022/08/29 10:10:26;;;;;;;4.78;3.00;;;;;;;;;;10407896;28;20120;-48
2022/08/29 10:15:46;;;;;;;3.30;3.00;;;;;;;;;;10360990;28;20034;-48
2022/08/29 10:21:17;;;;;;;4.47;3.17;;;;;;;;;;10380558;28;20037;-51
2022/08/29 10:26:48;;;;;;;4.15;3.38;;;;;;;;;;10400438;28;20473;-48
2022/08/29 10:31:54;;;;;;;7.60;3.50;;;;;;;;;;10410910;28;20112;-53
2022/08/29 10:37:03;;;;;;;4.10;3.58;;;;;;;;;;10421290;28;20480;-49
2022/08/29 10:42:13;;;;;;;4.65;3.45;;;;;;;;;;10403738;28;20033;-49
2022/08/29 10:47:37;;;;;;;3.38;3.08;;;;;;;;;;10403855;28;20037;-48
2022/08/29 10:53:02;;;;;;;5.47;3.13;;;;;;;;;;10420998;28;20032;-48
2022/08/29 10:58:18;;;;;;;4.22;3.35;;;;;;;;;;10420979;28;20053;-49
2022/08/29 11:03:43;;;;;;;6.53;3.55;;;;;;;;;;10404586;28;20021;-48
2022/08/29 11:08:54;;;;;;;6.63;4.13;;;;;;;;;;10421069;28;20086;-49
2022/08/29 11:14:10;;;;;;;3.83;3.42;;;;;;;;;;10403566;28;20026;-49
2022/08/29 11:19:23;;;;;;;4.20;3.45;;;;;;;;;;10402784;28;20056;-48
2022/08/29 11:24:29;;;;;;;4.75;3.30;;;;;;;;;;10420229;28;20026;-52
2022/08/29 11:29:48;;;;;;;3.72;3.38;;;;;;;;;;10393852;28;20099;-48
2022/08/29 11:35:06;;;;;;;4.55;3.17;;;;;;;;;;10419197;28;20025;-50
2022/08/29 11:40:49;;;;;;;8.40;3.75;;;;;;;;;;10411204;28;20030;-48
2022/08/29 11:46:04;;;;;;;5.00;3.40;;;;;;;;;;10411551;28;20033;-51
2022/08/29 11:51:37;;;;;;;6.35;3.80;;;;;;;;;;10413172;28;20033;-55
2022/08/29 11:56:38;;;;;;;6.88;3.55;;;;;;;;;;10390033;28;20037;-55
2022/08/29 12:01:38;;;;;;;5.43;3.72;;;;;;;;;;10412283;28;20025;-52
2022/08/29 12:07:00;;;;;;;3.93;3.60;;;;;;;;;;10410526;28;20427;-49
2022/08/29 12:12:03;;;;;;;5.07;3.60;;;;;;;;;;10412250;28;20554;-55
2022/08/29 12:17:09;;;;;;;4.35;3.92;;;;;;;;;;10411851;28;20072;-53
2022/08/29 12:22:09;;;;;;;4.43;4.00;;;;;;;;;;10394669;28;20083;-49
2022/08/29 12:28:12;;;;;;;5.40;3.70;;;;;;;;;;10410374;28;20044;-50
2022/08/29 12:33:44;;;;;;;5.18;3.97;;;;;;;;;;10403801;28;20378;-52
2022/08/29 12:39:33;;;;;;;5.65;3.83;;;;;;;;;;10408885;28;20033;-54
2022/08/29 12:44:42;;;;;;;7.50;3.75;;;;;;;;;;10398772;28;20409;-52
2022/08/29 12:49:50;;;;;;;6.88;4.07;;;;;;;;;;10381398;28;20033;-55
2022/08/29 12:54:51;;;;;;;6.55;4.03;;;;;;;;;;10410634;28;20042;-56
2022/08/29 12:59:53;;;;;;;5.57;3.60;;;;;;;;;;10409376;28;20041;-56
2022/08/29 13:04:54;;;;;;;4.25;3.70;;;;;;;;;;10408821;28;20069;-50
2022/08/29 13:09:59;;;;;;;4.95;3.63;;;;;;;;;;10409617;28;20061;-51
2022/08/29 13:15:21;;;;;;;7.68;3.83;;;;;;;;;;10409527;28;20037;-53
2022/08/29 13:20:38;;;;;;;5.88;3.47;;;;;;;;;;10407278;28;20041;-53
2022/08/29 13:26:09;;;;;;;10.50;4.07;;;;;;;;;;10406023;28;20025;-53
2022/08/29 13:31:10;;;;;;;8.48;4.07;;;;;;;;;;10405864;28;20108;-50
2022/08/29 13:36:26;;;;;;;8.43;3.70;;;;;;;;;;10409285;28;20026;-55
2022/08/29 13:41:27;;;;;;;5.20;3.65;;;;;;;;;;10408805;28;20040;-53
2022/08/29 13:46:29;;;;;;;4.20;3.78;;;;;;;;;;10408445;28;20142;-51
2022/08/29 13:51:29;;;;;;;7.35;3.65;;;;;;;;;;10407801;28;20033;-56
2022/08/29 13:56:32;;;;;;;7.38;3.60;;;;;;;;;;10408109;28;20099;-54
2022/08/29 14:01:33;;;;;;;4.30;3.38;;;;;;;;;;10405145;28;20484;-53
2022/08/29 14:06:33;;;;;;;8.13;3.95;;;;;;;;;;10406736;28;20046;-54
2022/08/29 14:11:34;;;;;;;5.63;3.28;;;;;;;;;;10405955;28;20269;-57
2022/08/29 14:16:34;;;;;;;6.45;3.80;;;;;;;;;;10401056;28;20029;-54
2022/08/29 14:21:35;;;;;;;9.32;3.58;;;;;;;;;;10406001;28;20496;-55
2022/08/29 14:26:37;;;;;;;5.40;3.38;;;;;;;;;;10406872;28;20037;-53
2022/08/29 14:31:38;;;;;;;4.32;3.25;;;;;;;;;;10402548;28;20029;-57
2022/08/29 14:36:39;;;;;;;6.82;3.20;;;;;;;;;;10407486;28;20427;-55
2022/08/29 14:41:41;;;;;;;4.13;3.47;;;;;;;;;;10407216;28;20026;-56
2022/08/29 14:46:41;;;;;;;4.60;3.33;;;;;;;;;;10406891;28;20563;-56
2022/08/29 14:51:43;;;;;;;6.85;3.15;;;;;;;;;;10405718;28;20072;-55
2022/08/29 14:56:44;;;;;;;4.75;3.78;;;;;;;;;;10403977;28;20036;-56
2022/08/29 15:01:44;;;;;;;4.15;2.85;;;;;;;;;;10406776;28;20033;-54
2022/08/29 15:06:45;;;;;;;4.68;3.30;;;;;;;;;;10406950;28;20038;-56
2022/08/29 15:11:46;;;;;;;8.65;3.17;;;;;;;;;;10411028;28;20033;-56
2022/08/29 15:16:46;;;;;;;6.13;3.17;;;;;;;;;;10414146;28;20040;-56
2022/08/29 15:21:47;;;;;;;3.83;3.25;;;;;;;;;;10414396;28;20099;-56
2022/08/29 15:26:47;;;;;;;3.58;3.10;;;;;;;;;;10400047;28;20057;-56
2022/08/29 15:31:50;;;;;;;4.78;3.15;;;;;;;;;;10404810;28;20087;-56
2022/08/29 15:36:53;;;;;;;3.40;3.10;;;;;;;;;;10413893;28;20037;-48
2022/08/29 15:41:56;;;;;;;3.88;2.67;;;;;;;;;;10414104;28;20523;-54
2022/08/29 15:46:57;;;;;;;2.72;2.47;;;;;;;;;;10395553;28;20044;-55
2022/08/29 15:51:57;;;;;;;4.05;2.88;;;;;;;;;;10413220;28;20473;-53
2022/08/29 15:56:58;;;;;;;4.13;2.85;;;;;;;;;;10412703;28;20018;-51
2022/08/29 16:01:59;;;;;;;3.15;2.60;;;;;;;;;;10412618;28;20112;-55
2022/08/29 16:06:59;;;;;;;4.22;2.78;;;;;;;;;;10413082;28;20554;-54
2022/08/29 16:12:00;;;;;;;4.75;2.75;;;;;;;;;;10412686;28;20029;-56
2022/08/29 16:17:01;;;;;;;4.18;2.90;;;;;;;;;;10411881;28;20029;-55
2022/08/29 16:22:02;;;;;;;3.45;2.83;;;;;;;;;;10410990;28;20201;-55
2022/08/29 16:27:03;;;;;;;3.45;2.75;;;;;;;;;;10411991;28;20104;-54
2022/08/29 16:32:04;;;;;;;3.60;2.80;;;;;;;;;;10400031;28;20033;-51
2022/08/29 16:37:05;;;;;;;3.40;3.10;;;;;;;;;;10404801;28;20030;-54
2022/08/29 16:42:06;;;;;;;4.82;3.03;;;;;;;;;;10405639;28;20037;-56
2022/08/29 16:47:07;;;;;;;2.83;2.53;;;;;;;;;;10410554;28;20552;-56
2022/08/29 16:52:08;;;;;;;4.35;2.95;;;;;;;;;;10410872;28;20029;-55
2022/08/29 16:57:08;;;;;;;9.80;3.05;;;;;;;;;;10410291;28;20025;-55
2022/08/29 17:02:09;;;;;;;7.45;2.90;;;;;;;;;;10410563;28;20075;-55
2022/08/29 17:07:09;;;;;;;6.47;2.67;;;;;;;;;;10410217;28;20053;-56
2022/08/29 17:17:12;;;;;;;5.35;2.83;;;;;;;;;;10410524;28;20065;-56
2022/08/29 17:22:14;;;;;;;6.07;2.97;;;;;;;;;;10409839;28;20033;-54
2022/08/29 17:27:15;;;;;;;4.13;3.05;;;;;;;;;;10391716;28;20050;-55
2022/08/29 17:32:16;;;;;;;3.33;2.88;;;;;;;;;;10400513;28;20115;-57
2022/08/29 17:37:16;;;;;;;3.15;2.85;;;;;;;;;;10410514;28;20030;-51
2022/08/29 17:42:17;;;;;;;5.43;2.70;;;;;;;;;;10409365;28;20382;-56
2022/08/29 17:47:17;;;;;;;3.92;2.78;;;;;;;;;;10408964;28;20045;-53
2022/08/29 17:52:18;;;;;;;5.50;2.78;;;;;;;;;;10408415;28;20017;-56
2022/08/29 17:57:19;;;;;;;3.35;2.67;;;;;;;;;;10389348;28;20033;-57
2022/08/29 18:02:19;;;;;;;7.80;3.03;;;;;;;;;;10396264;28;20021;-50
2022/08/29 18:07:20;;;;;;;3.30;3.00;;;;;;;;;;10396847;28;20065;-57
2022/08/29 18:12:21;;;;;;;4.50;3.20;;;;;;;;;;10407581;28;20029;-57
2022/08/29 18:17:22;;;;;;;7.95;3.35;;;;;;;;;;10406943;28;20040;-56
2022/08/29 18:22:22;;;;;;;3.22;2.83;;;;;;;;;;10407654;28;20038;-55
2022/08/29 18:27:25;;;;;;;3.38;2.63;;;;;;;;;;10408029;28;20040;-56
2022/08/29 18:32:27;;;;;;;3.35;3.05;;;;;;;;;;10401573;28;20025;-57
2022/08/29 18:37:27;;;;;;;4.82;3.40;;;;;;;;;;10406977;28;20030;-55
2022/08/29 18:42:28;;;;;;;4.43;3.30;;;;;;;;;;10405837;28;20021;-54
2022/08/29 18:47:28;;;;;;;4.60;3.28;;;;;;;;;;10412713;28;20122;-56
2022/08/29 18:52:29;;;;;;;6.47;3.33;;;;;;;;;;10412976;28;20182;-56
2022/08/29 18:57:30;;;;;;;4.40;3.28;;;;;;;;;;10413480;28;20036;-51
2022/08/29 19:02:30;;;;;;;4.03;3.35;;;;;;;;;;10412671;28;20032;-55
2022/08/29 19:07:31;;;;;;;5.03;3.20;;;;;;;;;;10412912;28;20578;-52
2022/08/29 19:12:32;;;;;;;4.03;3.15;;;;;;;;;;10412905;28;20029;-57
2022/08/29 19:17:34;;;;;;;7.50;3.90;;;;;;;;;;10410351;28;20052;-57
2022/08/29 19:22:35;;;;;;;6.95;3.80;;;;;;;;;;10413190;28;20363;-59
2022/08/29 19:27:36;;;;;;;11.00;4.10;;;;;;;;;;10410107;28;20030;-62
2022/08/29 19:32:37;;;;;;;8.00;3.65;;;;;;;;;;10402211;28;20108;-57
2022/08/29 19:37:41;;;;;;;6.00;3.78;;;;;;;;;;10412955;28;20112;-59
2022/08/29 19:42:42;;;;;;;7.03;3.78;;;;;;;;;;10413036;28;20026;-60
2022/08/29 19:47:43;;;;;;;6.57;3.83;;;;;;;;;;10412216;28;20106;-59
2022/08/29 19:52:44;;;;;;;4.88;3.47;;;;;;;;;;10412800;28;20059;-58
2022/08/29 19:57:46;;;;;;;6.22;4.00;;;;;;;;;;10408717;28;20030;-58
2022/08/29 20:02:47;;;;;;;9.18;3.80;;;;;;;;;;10403055;28;20044;-59
2022/08/29 20:07:48;;;;;;;7.68;3.90;;;;;;;;;;10412492;28;20437;-59
2022/08/29 20:12:50;;;;;;;6.50;3.72;;;;;;;;;;10407117;28;20045;-58
2022/08/29 20:17:52;;;;;;;8.25;4.35;;;;;;;;;;10407870;28;20320;-59
2022/08/29 20:22:53;;;;;;;5.47;4.03;;;;;;;;;;10399945;28;20037;-58
2022/08/29 20:27:53;;;;;;;9.73;4.38;;;;;;;;;;10410506;28;20018;-58
2022/08/29 20:32:54;;;;;;;12.90;4.38;;;;;;;;;;10381039;28;20026;-57
2022/08/29 20:37:55;;;;;;;9.13;4.50;;;;;;;;;;10409911;28;20034;-53
2022/08/29 20:42:56;;;;;;;4.55;3.83;;;;;;;;;;10410062;28;20021;-51
2022/08/29 20:47:57;;;;;;;5.78;3.53;;;;;;;;;;10409229;28;20036;-50
2022/08/29 20:52:57;;;;;;;6.03;4.07;;;;;;;;;;10408796;28;20022;-50
2022/08/29 20:57:58;;;;;;;5.32;3.42;;;;;;;;;;10409769;28;20028;-54
2022/08/29 21:08:21;;;;;;;8.65;4.00;;;;;;;;;;10406590;28;20034;-53
2022/08/29 21:13:23;;;;;;;5.72;4.20;;;;;;;;;;10407891;28;20037;-53
2022/08/29 21:18:23;;;;;;;9.18;4.18;;;;;;;;;;10406533;28;20048;-53
2022/08/29 21:23:33;;;;;;;6.50;4.28;;;;;;;;;;10407464;28;20022;-52
2022/08/29 21:28:33;;;;;;;6.82;4.85;;;;;;;;;;10406416;28;20041;-55
2022/08/29 21:33:39;;;;;;;20.23;4.90;;;;;;;;;;10407642;28;20033;-49
2022/08/29 21:38:40;;;;;;;5.82;3.90;;;;;;;;;;10407635;28;20346;-56
2022/08/29 21:43:41;;;;;;;10.57;4.50;;;;;;;;;;10407757;28;20037;-51
2022/08/29 21:48:41;;;;;;;7.25;3.95;;;;;;;;;;10408354;28;20033;-49
2022/08/29 21:53:42;;;;;;;10.65;4.05;;;;;;;;;;10405437;28;20530;-52
2022/08/29 21:58:46;;;;;;;5.30;3.60;;;;;;;;;;10403418;28;20033;-50
2022/08/29 22:03:48;;;;;;;5.13;3.40;;;;;;;;;;10406044;28;20413;-58
2022/08/29 22:08:49;;;;;;;4.28;3.53;;;;;;;;;;10407055;28;20054;-58
2022/08/29 22:13:51;;;;;;;9.23;3.58;;;;;;;;;;10407193;28;20034;-56
2022/08/29 22:18:52;;;;;;;4.45;3.30;;;;;;;;;;10406927;28;20021;-56
2022/08/29 22:23:53;;;;;;;5.20;3.65;;;;;;;;;;10406107;28;20032;-48
2022/08/29 22:28:55;;;;;;;4.28;3.53;;;;;;;;;;10398835;28;20434;-47
2022/08/29 22:33:56;;;;;;;4.10;3.20;;;;;;;;;;10403058;28;20524;-47
2022/08/29 22:38:56;;;;;;;5.03;3.20;;;;;;;;;;10406249;28;20038;-50
2022/08/29 22:43:59;;;;;;;5.05;3.30;;;;;;;;;;10406482;28;20504;-58
2022/08/29 22:49:01;;;;;;;5.57;3.13;;;;;;;;;;10406667;28;20037;-57
2022/08/29 22:59:21;;;;;;;3.70;3.10;;;;;;;;;;10398705;28;20109;-57
2022/08/29 23:04:22;;;;;;;3.63;3.20;;;;;;;;;;10405543;28;20042;-57
2022/08/29 23:09:23;;;;;;;4.57;2.80;;;;;;;;;;10405869;28;20116;-58
2022/08/29 23:14:23;;;;;;;3.50;3.20;;;;;;;;;;10405393;28;20029;-58
2022/08/29 23:19:24;;;;;;;4.00;2.78;;;;;;;;;;10405629;28;20035;-58
2022/08/29 23:24:25;;;;;;;2.92;2.72;;;;;;;;;;10406256;28;20400;-54
2022/08/29 23:29:29;;;;;;;4.82;2.72;;;;;;;;;;10396571;28;21328;-57
2022/08/29 23:34:31;;;;;;;3.38;2.95;;;;;;;;;;10411647;28;20503;-58
2022/08/29 23:39:32;;;;;;;3.53;2.88;;;;;;;;;;10413172;28;20397;-54
2022/08/29 23:44:32;;;;;;;2.60;2.40;;;;;;;;;;10412807;28;20037;-51
2022/08/29 23:49:33;;;;;;;3.03;2.67;;;;;;;;;;10411631;28;20037;-58
2022/08/29 23:54:35;;;;;;;3.55;2.80;;;;;;;;;;10412117;28;20033;-57
